sensor_id;sensor_type;location;lat;lon;timestamp;temperature;humidity
48264;DHT22;34086;51.076;13.722;2023-07-13T00:00:05;22.80;78.70
48264;DHT22;34086;51.076;13.722;2023-07-13T00:01:14;22.80;78.80
48264;DHT22;34086;51.076;13.722;2023-07-13T00:02:14;22.80;78.90
48264;DHT22;34086;51.076;13.722;2023-07-13T00:03:15;22.70;78.90
48264;DHT22;34086;51.076;13.722;2023-07-13T00:04:16;22.70;78.80
48264;DHT22;34086;51.076;13.722;2023-07-13T00:05:17;22.70;78.80
48264;DHT22;34086;51.076;13.722;2023-07-13T00:06:18;22.70;78.80
48264;DHT22;34086;51.076;13.722;2023-07-13T00:07:20;22.70;78.80
48264;DHT22;34086;51.076;13.722;2023-07-13T00:08:20;22.70;78.90
48264;DHT22;34086;51.076;13.722;2023-07-13T00:09:21;22.70;79.10
48264;DHT22;34086;51.076;13.722;2023-07-13T00:10:22;22.70;79.20
48264;DHT22;34086;51.076;13.722;2023-07-13T00:11:22;22.80;79.30
48264;DHT22;34086;51.076;13.722;2023-07-13T00:12:24;22.70;79.40
48264;DHT22;34086;51.076;13.722;2023-07-13T00:13:25;22.80;79.50
48264;DHT22;34086;51.076;13.722;2023-07-13T00:14:26;22.70;80.70
48264;DHT22;34086;51.076;13.722;2023-07-13T00:15:26;22.70;81.80
48264;DHT22;34086;51.076;13.722;2023-07-13T00:16:27;22.70;82.20
48264;DHT22;34086;51.076;13.722;2023-07-13T00:17:28;22.70;82.60
48264;DHT22;34086;51.076;13.722;2023-07-13T00:18:28;22.70;83.20
48264;DHT22;34086;51.076;13.722;2023-07-13T00:19:30;22.70;83.40
48264;DHT22;34086;51.076;13.722;2023-07-13T00:20:31;22.70;83.20
48264;DHT22;34086;51.076;13.722;2023-07-13T00:21:33;22.70;82.80
48264;DHT22;34086;51.076;13.722;2023-07-13T00:22:34;22.70;82.90
48264;DHT22;34086;51.076;13.722;2023-07-13T00:23:35;22.70;83.00
48264;DHT22;34086;51.076;13.722;2023-07-13T00:24:36;22.70;83.20
48264;DHT22;34086;51.076;13.722;2023-07-13T00:25:41;22.60;83.10
48264;DHT22;34086;51.076;13.722;2023-07-13T00:26:42;22.60;83.60
48264;DHT22;34086;51.076;13.722;2023-07-13T00:27:46;22.60;84.10
48264;DHT22;34086;51.076;13.722;2023-07-13T00:28:49;22.60;84.30
48264;DHT22;34086;51.076;13.722;2023-07-13T00:29:49;22.60;84.60
48264;DHT22;34086;51.076;13.722;2023-07-13T00:30:49;22.50;84.70
48264;DHT22;34086;51.076;13.722;2023-07-13T00:31:50;22.50;84.50
48264;DHT22;34086;51.076;13.722;2023-07-13T00:32:51;22.50;84.40
48264;DHT22;34086;51.076;13.722;2023-07-13T00:33:51;22.50;84.70
48264;DHT22;34086;51.076;13.722;2023-07-13T00:34:52;22.50;85.40
48264;DHT22;34086;51.076;13.722;2023-07-13T00:35:53;22.50;84.50
48264;DHT22;34086;51.076;13.722;2023-07-13T00:36:54;22.50;84.30
48264;DHT22;34086;51.076;13.722;2023-07-13T00:37:55;22.50;84.50
48264;DHT22;34086;51.076;13.722;2023-07-13T00:38:57;22.50;85.20
48264;DHT22;34086;51.076;13.722;2023-07-13T00:39:58;22.50;84.30
48264;DHT22;34086;51.076;13.722;2023-07-13T00:40:59;22.50;84.30
48264;DHT22;34086;51.076;13.722;2023-07-13T00:42:00;22.50;84.20
48264;DHT22;34086;51.076;13.722;2023-07-13T00:43:01;22.40;83.70
48264;DHT22;34086;51.076;13.722;2023-07-13T00:44:01;22.40;83.80
48264;DHT22;34086;51.076;13.722;2023-07-13T00:46:54;22.40;85.70
48264;DHT22;34086;51.076;13.722;2023-07-13T00:47:37;22.40;87.30
48264;DHT22;34086;51.076;13.722;2023-07-13T00:48:38;22.30;88.90
48264;DHT22;34086;51.076;13.722;2023-07-13T00:49:39;22.20;88.80
48264;DHT22;34086;51.076;13.722;2023-07-13T00:50:39;22.10;89.90
48264;DHT22;34086;51.076;13.722;2023-07-13T00:51:43;22.00;90.30
48264;DHT22;34086;51.076;13.722;2023-07-13T00:52:46;22.00;90.10
48264;DHT22;34086;51.076;13.722;2023-07-13T00:53:47;21.90;91.10
48264;DHT22;34086;51.076;13.722;2023-07-13T00:54:48;21.90;91.80
48264;DHT22;34086;51.076;13.722;2023-07-13T00:55:49;21.90;92.40
48264;DHT22;34086;51.076;13.722;2023-07-13T00:56:51;21.90;92.70
48264;DHT22;34086;51.076;13.722;2023-07-13T00:57:52;21.80;92.40
48264;DHT22;34086;51.076;13.722;2023-07-13T00:58:52;21.80;92.50
48264;DHT22;34086;51.076;13.722;2023-07-13T00:59:54;21.80;92.20
48264;DHT22;34086;51.076;13.722;2023-07-13T01:00:55;21.70;92.40
48264;DHT22;34086;51.076;13.722;2023-07-13T01:01:56;21.70;93.00
48264;DHT22;34086;51.076;13.722;2023-07-13T01:02:56;21.70;93.50
48264;DHT22;34086;51.076;13.722;2023-07-13T01:04:00;21.60;94.00
48264;DHT22;34086;51.076;13.722;2023-07-13T01:05:00;21.60;94.60
48264;DHT22;34086;51.076;13.722;2023-07-13T01:06:02;21.60;94.60
48264;DHT22;34086;51.076;13.722;2023-07-13T01:07:02;21.50;95.10
48264;DHT22;34086;51.076;13.722;2023-07-13T01:08:03;21.50;95.50
48264;DHT22;34086;51.076;13.722;2023-07-13T01:09:07;21.50;95.60
48264;DHT22;34086;51.076;13.722;2023-07-13T01:10:08;21.50;95.60
48264;DHT22;34086;51.076;13.722;2023-07-13T01:11:09;21.40;95.20
48264;DHT22;34086;51.076;13.722;2023-07-13T01:12:09;21.40;94.40
48264;DHT22;34086;51.076;13.722;2023-07-13T01:13:10;21.30;94.10
48264;DHT22;34086;51.076;13.722;2023-07-13T01:14:10;21.40;93.80
48264;DHT22;34086;51.076;13.722;2023-07-13T01:16:31;21.40;93.60
48264;DHT22;34086;51.076;13.722;2023-07-13T01:17:33;21.30;94.10
48264;DHT22;34086;51.076;13.722;2023-07-13T01:18:34;21.40;94.90
48264;DHT22;34086;51.076;13.722;2023-07-13T01:19:38;21.40;95.50
48264;DHT22;34086;51.076;13.722;2023-07-13T01:20:39;21.50;95.80
48264;DHT22;34086;51.076;13.722;2023-07-13T01:21:40;21.40;96.30
48264;DHT22;34086;51.076;13.722;2023-07-13T01:22:43;21.40;96.20
48264;DHT22;34086;51.076;13.722;2023-07-13T01:23:43;21.40;96.90
48264;DHT22;34086;51.076;13.722;2023-07-13T01:24:45;21.40;97.10
48264;DHT22;34086;51.076;13.722;2023-07-13T01:25:46;21.40;97.30
48264;DHT22;34086;51.076;13.722;2023-07-13T01:26:47;21.30;97.40
48264;DHT22;34086;51.076;13.722;2023-07-13T01:27:47;21.30;97.80
48264;DHT22;34086;51.076;13.722;2023-07-13T01:28:48;21.30;98.10
48264;DHT22;34086;51.076;13.722;2023-07-13T01:29:48;21.30;98.40
48264;DHT22;34086;51.076;13.722;2023-07-13T01:30:50;21.20;97.50
48264;DHT22;34086;51.076;13.722;2023-07-13T01:31:50;21.20;98.20
48264;DHT22;34086;51.076;13.722;2023-07-13T01:32:51;21.20;98.60
48264;DHT22;34086;51.076;13.722;2023-07-13T01:33:53;21.20;98.80
48264;DHT22;34086;51.076;13.722;2023-07-13T01:34:55;21.20;99.10
48264;DHT22;34086;51.076;13.722;2023-07-13T01:35:55;21.20;99.50
48264;DHT22;34086;51.076;13.722;2023-07-13T01:36:57;21.20;99.90
48264;DHT22;34086;51.076;13.722;2023-07-13T01:37:58;21.20;99.80
48264;DHT22;34086;51.076;13.722;2023-07-13T01:39:00;21.20;99.80
48264;DHT22;34086;51.076;13.722;2023-07-13T01:40:01;21.20;98.70
48264;DHT22;34086;51.076;13.722;2023-07-13T01:41:01;21.20;98.40
48264;DHT22;34086;51.076;13.722;2023-07-13T01:42:02;21.20;99.30
48264;DHT22;34086;51.076;13.722;2023-07-13T01:43:03;21.10;99.40
48264;DHT22;34086;51.076;13.722;2023-07-13T01:44:04;21.10;99.30
48264;DHT22;34086;51.076;13.722;2023-07-13T01:45:05;21.10;99.30
48264;DHT22;34086;51.076;13.722;2023-07-13T01:46:05;21.10;99.30
48264;DHT22;34086;51.076;13.722;2023-07-13T01:47:06;21.10;99.30
48264;DHT22;34086;51.076;13.722;2023-07-13T01:48:07;21.10;99.20
48264;DHT22;34086;51.076;13.722;2023-07-13T01:49:07;21.00;99.20
48264;DHT22;34086;51.076;13.722;2023-07-13T01:50:08;21.00;99.70
48264;DHT22;34086;51.076;13.722;2023-07-13T01:51:08;21.00;99.70
48264;DHT22;34086;51.076;13.722;2023-07-13T01:52:09;21.00;99.70
48264;DHT22;34086;51.076;13.722;2023-07-13T01:53:09;21.00;99.70
48264;DHT22;34086;51.076;13.722;2023-07-13T01:54:10;20.90;99.70
48264;DHT22;34086;51.076;13.722;2023-07-13T01:55:10;20.90;99.80
48264;DHT22;34086;51.076;13.722;2023-07-13T01:56:11;20.90;99.90
48264;DHT22;34086;51.076;13.722;2023-07-13T01:57:11;20.80;99.90
48264;DHT22;34086;51.076;13.722;2023-07-13T01:58:12;20.80;99.90
48264;DHT22;34086;51.076;13.722;2023-07-13T01:59:13;20.70;99.90
48264;DHT22;34086;51.076;13.722;2023-07-13T02:00:14;20.70;99.90
48264;DHT22;34086;51.076;13.722;2023-07-13T02:01:17;20.70;99.90
48264;DHT22;34086;51.076;13.722;2023-07-13T02:02:18;20.70;99.90
48264;DHT22;34086;51.076;13.722;2023-07-13T02:03:18;20.70;99.90
48264;DHT22;34086;51.076;13.722;2023-07-13T02:04:20;20.70;99.90
48264;DHT22;34086;51.076;13.722;2023-07-13T02:05:20;20.70;99.90
48264;DHT22;34086;51.076;13.722;2023-07-13T02:06:21;20.70;99.90
48264;DHT22;34086;51.076;13.722;2023-07-13T02:07:22;20.70;99.90
48264;DHT22;34086;51.076;13.722;2023-07-13T02:08:23;20.60;99.90
48264;DHT22;34086;51.076;13.722;2023-07-13T02:09:23;20.70;99.90
48264;DHT22;34086;51.076;13.722;2023-07-13T02:10:24;20.60;99.90
48264;DHT22;34086;51.076;13.722;2023-07-13T02:11:25;20.60;99.90
48264;DHT22;34086;51.076;13.722;2023-07-13T02:12:25;20.70;99.90
48264;DHT22;34086;51.076;13.722;2023-07-13T02:13:25;20.60;99.90
48264;DHT22;34086;51.076;13.722;2023-07-13T02:14:26;20.60;99.90
48264;DHT22;34086;51.076;13.722;2023-07-13T02:15:27;20.50;99.90
48264;DHT22;34086;51.076;13.722;2023-07-13T02:16:27;20.50;99.90
48264;DHT22;34086;51.076;13.722;2023-07-13T02:17:28;20.50;99.90
48264;DHT22;34086;51.076;13.722;2023-07-13T02:18:28;20.50;99.90
48264;DHT22;34086;51.076;13.722;2023-07-13T02:19:29;20.50;99.90
48264;DHT22;34086;51.076;13.722;2023-07-13T02:20:29;20.40;99.90
48264;DHT22;34086;51.076;13.722;2023-07-13T02:21:30;20.40;99.90
48264;DHT22;34086;51.076;13.722;2023-07-13T02:22:30;20.40;99.90
48264;DHT22;34086;51.076;13.722;2023-07-13T02:23:31;20.40;99.90
48264;DHT22;34086;51.076;13.722;2023-07-13T02:24:32;20.50;99.90
48264;DHT22;34086;51.076;13.722;2023-07-13T02:25:32;20.40;99.90
48264;DHT22;34086;51.076;13.722;2023-07-13T02:26:32;20.40;99.90
48264;DHT22;34086;51.076;13.722;2023-07-13T02:27:33;20.40;99.90
48264;DHT22;34086;51.076;13.722;2023-07-13T02:28:33;20.40;99.90
48264;DHT22;34086;51.076;13.722;2023-07-13T02:29:34;20.40;99.90
48264;DHT22;34086;51.076;13.722;2023-07-13T02:30:35;20.40;99.90
48264;DHT22;34086;51.076;13.722;2023-07-13T02:31:35;20.40;99.90
48264;DHT22;34086;51.076;13.722;2023-07-13T02:32:36;20.30;99.90
48264;DHT22;34086;51.076;13.722;2023-07-13T02:33:36;20.30;99.90
48264;DHT22;34086;51.076;13.722;2023-07-13T02:34:37;20.30;99.90
48264;DHT22;34086;51.076;13.722;2023-07-13T02:35:38;20.40;99.90
48264;DHT22;34086;51.076;13.722;2023-07-13T02:36:39;20.40;99.90
48264;DHT22;34086;51.076;13.722;2023-07-13T02:37:40;20.40;99.90
48264;DHT22;34086;51.076;13.722;2023-07-13T02:38:41;20.40;99.90
48264;DHT22;34086;51.076;13.722;2023-07-13T02:39:42;20.40;99.90
48264;DHT22;34086;51.076;13.722;2023-07-13T02:40:42;20.40;99.90
48264;DHT22;34086;51.076;13.722;2023-07-13T02:41:42;20.40;99.90
48264;DHT22;34086;51.076;13.722;2023-07-13T02:42:43;20.40;99.90
48264;DHT22;34086;51.076;13.722;2023-07-13T02:43:43;20.40;99.90
48264;DHT22;34086;51.076;13.722;2023-07-13T02:44:44;20.30;99.90
48264;DHT22;34086;51.076;13.722;2023-07-13T02:45:45;20.30;99.90
48264;DHT22;34086;51.076;13.722;2023-07-13T02:46:45;20.40;99.90
48264;DHT22;34086;51.076;13.722;2023-07-13T02:47:47;20.30;99.90
48264;DHT22;34086;51.076;13.722;2023-07-13T02:48:48;20.30;99.90
48264;DHT22;34086;51.076;13.722;2023-07-13T02:49:48;20.40;99.90
48264;DHT22;34086;51.076;13.722;2023-07-13T02:50:49;20.40;99.90
48264;DHT22;34086;51.076;13.722;2023-07-13T02:51:50;20.40;99.90
48264;DHT22;34086;51.076;13.722;2023-07-13T02:52:51;20.40;99.90
48264;DHT22;34086;51.076;13.722;2023-07-13T02:53:51;20.40;99.90
48264;DHT22;34086;51.076;13.722;2023-07-13T02:54:52;20.40;99.90
48264;DHT22;34086;51.076;13.722;2023-07-13T02:55:53;20.40;99.90
48264;DHT22;34086;51.076;13.722;2023-07-13T02:56:53;20.40;99.90
48264;DHT22;34086;51.076;13.722;2023-07-13T02:57:54;20.40;99.90
48264;DHT22;34086;51.076;13.722;2023-07-13T02:58:54;20.40;99.90
48264;DHT22;34086;51.076;13.722;2023-07-13T02:59:55;20.40;99.90
48264;DHT22;34086;51.076;13.722;2023-07-13T03:00:56;20.40;99.90
48264;DHT22;34086;51.076;13.722;2023-07-13T03:01:58;20.40;99.90
48264;DHT22;34086;51.076;13.722;2023-07-13T03:02:58;20.40;99.90
48264;DHT22;34086;51.076;13.722;2023-07-13T03:04:00;20.40;99.90
48264;DHT22;34086;51.076;13.722;2023-07-13T03:05:01;20.40;99.90
48264;DHT22;34086;51.076;13.722;2023-07-13T03:06:02;20.40;99.90
48264;DHT22;34086;51.076;13.722;2023-07-13T03:07:09;20.40;99.90
48264;DHT22;34086;51.076;13.722;2023-07-13T03:08:11;20.30;99.90
48264;DHT22;34086;51.076;13.722;2023-07-13T03:09:13;20.30;99.90
48264;DHT22;34086;51.076;13.722;2023-07-13T03:10:17;20.30;99.90
48264;DHT22;34086;51.076;13.722;2023-07-13T03:11:22;20.20;99.90
48264;DHT22;34086;51.076;13.722;2023-07-13T03:12:28;20.20;99.90
48264;DHT22;34086;51.076;13.722;2023-07-13T03:13:29;20.20;99.90
48264;DHT22;34086;51.076;13.722;2023-07-13T03:14:29;20.20;99.90
48264;DHT22;34086;51.076;13.722;2023-07-13T03:15:31;20.20;99.90
48264;DHT22;34086;51.076;13.722;2023-07-13T03:16:32;20.20;99.90
48264;DHT22;34086;51.076;13.722;2023-07-13T03:17:33;20.10;99.90
48264;DHT22;34086;51.076;13.722;2023-07-13T03:18:35;20.10;99.90
48264;DHT22;34086;51.076;13.722;2023-07-13T03:19:38;20.10;99.90
48264;DHT22;34086;51.076;13.722;2023-07-13T03:20:39;20.10;99.90
48264;DHT22;34086;51.076;13.722;2023-07-13T03:21:39;20.10;99.90
48264;DHT22;34086;51.076;13.722;2023-07-13T03:22:40;20.10;99.90
48264;DHT22;34086;51.076;13.722;2023-07-13T03:23:41;20.00;99.90
48264;DHT22;34086;51.076;13.722;2023-07-13T03:24:42;20.00;99.90
48264;DHT22;34086;51.076;13.722;2023-07-13T03:25:42;20.00;99.90
48264;DHT22;34086;51.076;13.722;2023-07-13T03:26:45;20.00;99.90
48264;DHT22;34086;51.076;13.722;2023-07-13T03:27:45;20.00;99.90
48264;DHT22;34086;51.076;13.722;2023-07-13T03:28:46;20.00;99.90
48264;DHT22;34086;51.076;13.722;2023-07-13T03:29:51;20.00;99.90
48264;DHT22;34086;51.076;13.722;2023-07-13T03:31:03;20.00;99.90
48264;DHT22;34086;51.076;13.722;2023-07-13T03:32:05;20.00;99.90
48264;DHT22;34086;51.076;13.722;2023-07-13T03:33:07;20.00;99.90
48264;DHT22;34086;51.076;13.722;2023-07-13T03:34:08;19.90;99.90
48264;DHT22;34086;51.076;13.722;2023-07-13T03:35:10;19.90;99.90
48264;DHT22;34086;51.076;13.722;2023-07-13T03:36:13;19.90;99.90
48264;DHT22;34086;51.076;13.722;2023-07-13T03:37:14;20.00;99.90
48264;DHT22;34086;51.076;13.722;2023-07-13T03:38:15;19.90;99.90
48264;DHT22;34086;51.076;13.722;2023-07-13T03:39:15;19.90;99.90
48264;DHT22;34086;51.076;13.722;2023-07-13T03:40:27;19.90;99.90
48264;DHT22;34086;51.076;13.722;2023-07-13T03:41:27;19.90;99.90
48264;DHT22;34086;51.076;13.722;2023-07-13T03:42:29;19.90;99.90
48264;DHT22;34086;51.076;13.722;2023-07-13T03:43:29;19.90;99.90
48264;DHT22;34086;51.076;13.722;2023-07-13T03:44:30;19.90;99.90
48264;DHT22;34086;51.076;13.722;2023-07-13T03:45:31;19.90;99.90
48264;DHT22;34086;51.076;13.722;2023-07-13T03:46:32;19.90;99.90
48264;DHT22;34086;51.076;13.722;2023-07-13T03:47:33;20.00;99.90
48264;DHT22;34086;51.076;13.722;2023-07-13T03:48:37;19.90;99.90
48264;DHT22;34086;51.076;13.722;2023-07-13T03:49:40;20.00;99.90
48264;DHT22;34086;51.076;13.722;2023-07-13T03:50:40;20.00;99.90
48264;DHT22;34086;51.076;13.722;2023-07-13T03:51:41;20.00;99.90
48264;DHT22;34086;51.076;13.722;2023-07-13T03:52:41;20.00;99.90
48264;DHT22;34086;51.076;13.722;2023-07-13T03:53:42;20.00;99.90
48264;DHT22;34086;51.076;13.722;2023-07-13T03:54:44;20.00;99.90
48264;DHT22;34086;51.076;13.722;2023-07-13T03:55:45;20.00;99.90
48264;DHT22;34086;51.076;13.722;2023-07-13T03:56:46;20.00;99.90
48264;DHT22;34086;51.076;13.722;2023-07-13T03:57:47;20.00;99.90
48264;DHT22;34086;51.076;13.722;2023-07-13T03:58:49;20.00;99.90
48264;DHT22;34086;51.076;13.722;2023-07-13T03:59:54;20.10;99.90
48264;DHT22;34086;51.076;13.722;2023-07-13T04:00:55;20.00;99.90
48264;DHT22;34086;51.076;13.722;2023-07-13T04:01:55;20.10;99.90
48264;DHT22;34086;51.076;13.722;2023-07-13T04:02:56;20.10;99.90
48264;DHT22;34086;51.076;13.722;2023-07-13T04:03:57;20.10;99.90
48264;DHT22;34086;51.076;13.722;2023-07-13T04:04:58;20.10;99.90
48264;DHT22;34086;51.076;13.722;2023-07-13T04:05:59;20.10;99.90
48264;DHT22;34086;51.076;13.722;2023-07-13T04:07:00;20.10;99.90
48264;DHT22;34086;51.076;13.722;2023-07-13T04:08:01;20.10;99.90
48264;DHT22;34086;51.076;13.722;2023-07-13T04:09:02;20.10;99.90
48264;DHT22;34086;51.076;13.722;2023-07-13T04:10:05;20.20;99.90
48264;DHT22;34086;51.076;13.722;2023-07-13T04:11:06;20.20;99.90
48264;DHT22;34086;51.076;13.722;2023-07-13T04:12:07;20.20;99.90
48264;DHT22;34086;51.076;13.722;2023-07-13T04:13:07;20.20;99.90
48264;DHT22;34086;51.076;13.722;2023-07-13T04:14:08;20.20;99.90
48264;DHT22;34086;51.076;13.722;2023-07-13T04:15:09;20.20;99.90
48264;DHT22;34086;51.076;13.722;2023-07-13T04:16:09;20.30;99.90
48264;DHT22;34086;51.076;13.722;2023-07-13T04:17:10;20.30;99.90
48264;DHT22;34086;51.076;13.722;2023-07-13T04:18:10;20.40;99.90
48264;DHT22;34086;51.076;13.722;2023-07-13T04:19:11;20.40;99.90
48264;DHT22;34086;51.076;13.722;2023-07-13T04:20:11;20.40;99.90
48264;DHT22;34086;51.076;13.722;2023-07-13T04:21:12;20.60;99.90
48264;DHT22;34086;51.076;13.722;2023-07-13T04:22:13;20.80;99.90
48264;DHT22;34086;51.076;13.722;2023-07-13T04:23:13;20.90;99.90
48264;DHT22;34086;51.076;13.722;2023-07-13T04:24:14;21.10;99.90
48264;DHT22;34086;51.076;13.722;2023-07-13T04:25:14;21.30;99.90
48264;DHT22;34086;51.076;13.722;2023-07-13T04:26:15;21.40;99.90
48264;DHT22;34086;51.076;13.722;2023-07-13T04:27:15;21.60;99.90
48264;DHT22;34086;51.076;13.722;2023-07-13T04:28:16;21.60;99.90
48264;DHT22;34086;51.076;13.722;2023-07-13T04:29:17;21.70;99.90
48264;DHT22;34086;51.076;13.722;2023-07-13T04:30:18;21.60;99.90
48264;DHT22;34086;51.076;13.722;2023-07-13T04:31:19;21.60;99.90
48264;DHT22;34086;51.076;13.722;2023-07-13T04:32:20;21.40;99.90
48264;DHT22;34086;51.076;13.722;2023-07-13T04:33:20;21.40;99.90
48264;DHT22;34086;51.076;13.722;2023-07-13T04:34:23;21.30;99.90
48264;DHT22;34086;51.076;13.722;2023-07-13T04:35:24;21.20;99.90
48264;DHT22;34086;51.076;13.722;2023-07-13T04:36:24;21.10;99.90
48264;DHT22;34086;51.076;13.722;2023-07-13T04:37:27;21.00;99.90
48264;DHT22;34086;51.076;13.722;2023-07-13T04:38:28;20.80;99.90
48264;DHT22;34086;51.076;13.722;2023-07-13T04:39:29;20.80;99.90
48264;DHT22;34086;51.076;13.722;2023-07-13T04:40:29;20.80;99.90
48264;DHT22;34086;51.076;13.722;2023-07-13T04:41:30;20.70;99.90
48264;DHT22;34086;51.076;13.722;2023-07-13T04:42:30;20.60;99.90
48264;DHT22;34086;51.076;13.722;2023-07-13T04:43:31;20.60;99.90
48264;DHT22;34086;51.076;13.722;2023-07-13T04:44:32;20.60;99.90
48264;DHT22;34086;51.076;13.722;2023-07-13T04:45:33;20.60;99.90
48264;DHT22;34086;51.076;13.722;2023-07-13T04:46:35;20.60;99.90
48264;DHT22;34086;51.076;13.722;2023-07-13T04:47:35;20.60;99.90
48264;DHT22;34086;51.076;13.722;2023-07-13T04:48:36;20.50;99.90
48264;DHT22;34086;51.076;13.722;2023-07-13T04:49:36;20.50;99.90
48264;DHT22;34086;51.076;13.722;2023-07-13T04:50:37;20.50;99.90
48264;DHT22;34086;51.076;13.722;2023-07-13T04:51:37;20.50;99.90
48264;DHT22;34086;51.076;13.722;2023-07-13T04:52:38;20.50;99.90
48264;DHT22;34086;51.076;13.722;2023-07-13T04:53:38;20.50;99.90
48264;DHT22;34086;51.076;13.722;2023-07-13T04:54:39;20.50;99.90
48264;DHT22;34086;51.076;13.722;2023-07-13T04:55:39;20.50;99.90
48264;DHT22;34086;51.076;13.722;2023-07-13T04:56:41;20.60;99.90
48264;DHT22;34086;51.076;13.722;2023-07-13T04:57:41;20.60;99.90
48264;DHT22;34086;51.076;13.722;2023-07-13T04:58:42;20.70;99.90
48264;DHT22;34086;51.076;13.722;2023-07-13T04:59:42;20.80;99.90
48264;DHT22;34086;51.076;13.722;2023-07-13T05:00:42;20.90;99.90
48264;DHT22;34086;51.076;13.722;2023-07-13T05:01:43;21.00;99.90
48264;DHT22;34086;51.076;13.722;2023-07-13T05:02:44;21.20;99.90
48264;DHT22;34086;51.076;13.722;2023-07-13T05:03:46;21.40;99.90
48264;DHT22;34086;51.076;13.722;2023-07-13T05:04:46;21.60;99.90
48264;DHT22;34086;51.076;13.722;2023-07-13T05:06:04;22.00;99.90
48264;DHT22;34086;51.076;13.722;2023-07-13T05:07:05;22.30;99.90
48264;DHT22;34086;51.076;13.722;2023-07-13T05:08:06;22.80;99.90
48264;DHT22;34086;51.076;13.722;2023-07-13T05:09:07;23.20;99.90
48264;DHT22;34086;51.076;13.722;2023-07-13T05:10:08;23.30;99.90
48264;DHT22;34086;51.076;13.722;2023-07-13T05:11:09;23.50;99.90
48264;DHT22;34086;51.076;13.722;2023-07-13T05:12:10;23.70;99.90
48264;DHT22;34086;51.076;13.722;2023-07-13T05:13:11;23.80;99.20
48264;DHT22;34086;51.076;13.722;2023-07-13T05:14:11;23.80;99.00
48264;DHT22;34086;51.076;13.722;2023-07-13T05:15:12;23.80;98.30
48264;DHT22;34086;51.076;13.722;2023-07-13T05:16:12;23.80;97.90
48264;DHT22;34086;51.076;13.722;2023-07-13T05:17:13;23.80;97.80
48264;DHT22;34086;51.076;13.722;2023-07-13T05:18:13;23.70;97.60
48264;DHT22;34086;51.076;13.722;2023-07-13T05:19:14;23.60;97.50
48264;DHT22;34086;51.076;13.722;2023-07-13T05:20:15;23.80;96.90
48264;DHT22;34086;51.076;13.722;2023-07-13T05:21:16;23.80;96.40
48264;DHT22;34086;51.076;13.722;2023-07-13T05:22:16;23.80;95.90
48264;DHT22;34086;51.076;13.722;2023-07-13T05:23:17;23.70;95.90
48264;DHT22;34086;51.076;13.722;2023-07-13T05:24:17;23.60;95.80
48264;DHT22;34086;51.076;13.722;2023-07-13T05:25:18;23.40;96.70
48264;DHT22;34086;51.076;13.722;2023-07-13T05:26:19;23.30;97.10
48264;DHT22;34086;51.076;13.722;2023-07-13T05:27:20;23.20;97.60
48264;DHT22;34086;51.076;13.722;2023-07-13T05:28:21;23.00;97.80
48264;DHT22;34086;51.076;13.722;2023-07-13T05:29:22;22.90;98.10
48264;DHT22;34086;51.076;13.722;2023-07-13T05:30:22;22.80;98.30
48264;DHT22;34086;51.076;13.722;2023-07-13T05:31:23;22.80;98.10
48264;DHT22;34086;51.076;13.722;2023-07-13T05:32:23;22.70;98.40
48264;DHT22;34086;51.076;13.722;2023-07-13T05:33:24;22.70;98.10
48264;DHT22;34086;51.076;13.722;2023-07-13T05:34:25;22.60;98.50
48264;DHT22;34086;51.076;13.722;2023-07-13T05:35:27;22.50;99.40
48264;DHT22;34086;51.076;13.722;2023-07-13T05:36:27;22.50;99.20
48264;DHT22;34086;51.076;13.722;2023-07-13T05:37:27;22.40;99.60
48264;DHT22;34086;51.076;13.722;2023-07-13T05:38:28;22.40;99.70
48264;DHT22;34086;51.076;13.722;2023-07-13T05:39:29;22.30;99.90
48264;DHT22;34086;51.076;13.722;2023-07-13T05:40:30;22.40;99.90
48264;DHT22;34086;51.076;13.722;2023-07-13T05:41:30;22.50;99.90
48264;DHT22;34086;51.076;13.722;2023-07-13T05:42:31;22.60;99.80
48264;DHT22;34086;51.076;13.722;2023-07-13T05:43:31;22.70;99.40
48264;DHT22;34086;51.076;13.722;2023-07-13T05:44:32;22.80;99.20
48264;DHT22;34086;51.076;13.722;2023-07-13T05:45:33;23.00;99.00
48264;DHT22;34086;51.076;13.722;2023-07-13T05:46:33;23.20;98.50
48264;DHT22;34086;51.076;13.722;2023-07-13T05:47:34;23.40;97.90
48264;DHT22;34086;51.076;13.722;2023-07-13T05:48:34;23.60;97.20
48264;DHT22;34086;51.076;13.722;2023-07-13T05:49:35;23.70;96.60
48264;DHT22;34086;51.076;13.722;2023-07-13T05:50:35;23.80;96.10
48264;DHT22;34086;51.076;13.722;2023-07-13T05:51:36;24.00;95.80
48264;DHT22;34086;51.076;13.722;2023-07-13T05:52:36;24.30;95.30
48264;DHT22;34086;51.076;13.722;2023-07-13T05:53:37;24.40;94.50
48264;DHT22;34086;51.076;13.722;2023-07-13T05:54:38;24.60;93.90
48264;DHT22;34086;51.076;13.722;2023-07-13T05:55:42;24.80;93.40
48264;DHT22;34086;51.076;13.722;2023-07-13T05:56:43;24.90;93.10
48264;DHT22;34086;51.076;13.722;2023-07-13T05:57:43;25.00;93.10
48264;DHT22;34086;51.076;13.722;2023-07-13T05:58:44;25.00;93.20
48264;DHT22;34086;51.076;13.722;2023-07-13T05:59:44;25.10;93.10
48264;DHT22;34086;51.076;13.722;2023-07-13T06:00:45;25.10;92.60
48264;DHT22;34086;51.076;13.722;2023-07-13T06:01:46;25.20;92.50
48264;DHT22;34086;51.076;13.722;2023-07-13T06:02:46;25.20;92.10
48264;DHT22;34086;51.076;13.722;2023-07-13T06:03:47;25.30;91.90
48264;DHT22;34086;51.076;13.722;2023-07-13T06:04:47;25.30;91.40
48264;DHT22;34086;51.076;13.722;2023-07-13T06:05:48;25.30;91.10
48264;DHT22;34086;51.076;13.722;2023-07-13T06:06:48;25.40;90.90
48264;DHT22;34086;51.076;13.722;2023-07-13T06:07:49;25.50;90.80
48264;DHT22;34086;51.076;13.722;2023-07-13T06:08:49;25.50;90.80
48264;DHT22;34086;51.076;13.722;2023-07-13T06:09:50;25.40;90.90
48264;DHT22;34086;51.076;13.722;2023-07-13T06:10:50;25.20;90.90
48264;DHT22;34086;51.076;13.722;2023-07-13T06:11:50;25.10;90.90
48264;DHT22;34086;51.076;13.722;2023-07-13T06:12:51;24.90;91.20
48264;DHT22;34086;51.076;13.722;2023-07-13T06:13:52;24.70;91.70
48264;DHT22;34086;51.076;13.722;2023-07-13T06:14:52;24.60;92.10
48264;DHT22;34086;51.076;13.722;2023-07-13T06:15:52;24.50;92.10
48264;DHT22;34086;51.076;13.722;2023-07-13T06:16:53;24.30;92.00
48264;DHT22;34086;51.076;13.722;2023-07-13T06:17:53;24.20;91.90
48264;DHT22;34086;51.076;13.722;2023-07-13T06:18:54;24.10;92.60
48264;DHT22;34086;51.076;13.722;2023-07-13T06:19:54;24.10;92.70
48264;DHT22;34086;51.076;13.722;2023-07-13T06:20:55;24.00;93.30
48264;DHT22;34086;51.076;13.722;2023-07-13T06:21:55;24.00;93.10